createdAt,value
2022-12-23T00:00:40.841Z,77.77
2022-12-23T00:03:07.881Z,78.14
2022-12-23T00:05:38.617Z,78.27
2022-12-23T00:08:05.674Z,77.82
2022-12-23T00:10:32.213Z,77.77
2022-12-23T00:13:17.470Z,77.75
2022-12-23T00:15:43.880Z,77.19
2022-12-23T00:18:10.288Z,77.12
2022-12-23T00:20:36.883Z,77.41
2022-12-23T00:23:06.158Z,78.44
2022-12-23T00:25:40.346Z,78.19
2022-12-23T00:28:11.669Z,78.38
2022-12-23T00:30:43.957Z,78.80
2022-12-23T00:33:10.309Z,78.59
2022-12-23T00:35:36.718Z,78.42
2022-12-23T00:38:03.144Z,78.79
2022-12-23T00:40:48.388Z,78.60
2022-12-23T00:43:14.827Z,78.75
2022-12-23T00:45:41.437Z,78.73
2022-12-23T00:48:26.760Z,78.32
2022-12-23T00:50:53.526Z,78.61
2022-12-23T00:53:20.691Z,78.28
2022-12-23T00:55:50.788Z,79.03
2022-12-23T00:58:17.985Z,78.85
2022-12-23T01:01:03.998Z,79.42
2022-12-23T01:03:49.348Z,79.07
2022-12-23T01:06:16.152Z,79.04
2022-12-23T01:08:42.992Z,79.02
2022-12-23T01:11:10.962Z,78.04
2022-12-23T01:13:37.694Z,78.87
2022-12-23T01:16:07.459Z,78.83
2022-12-23T01:18:36.324Z,78.37
2022-12-23T01:21:03.919Z,77.87
2022-12-23T01:23:30.374Z,77.60
2022-12-23T01:25:58.375Z,77.08
2022-12-23T01:28:24.965Z,78.70
2022-12-23T01:30:51.453Z,78.39
2022-12-23T01:33:17.896Z,79.23
2022-12-23T01:35:44.372Z,77.63
2022-12-23T01:38:10.828Z,78.42
2022-12-23T01:40:37.693Z,78.43
2022-12-23T01:43:04.120Z,79.18
2022-12-23T01:45:33.750Z,78.92
2022-12-23T01:48:02.434Z,79.14
2022-12-23T01:50:32.089Z,79.50
2022-12-23T01:53:08.223Z,78.74
2022-12-23T01:55:45.101Z,79.20
2022-12-23T01:58:16.812Z,78.87
2022-12-23T02:01:02.095Z,78.84
2022-12-23T02:03:44.088Z,78.85
2022-12-23T02:06:32.264Z,79.39
2022-12-23T02:09:17.125Z,79.16
2022-12-23T02:11:43.588Z,78.92
2022-12-23T02:14:47.329Z,79.38
2022-12-23T02:17:24.679Z,78.05
2022-12-23T02:20:10.039Z,78.31
2022-12-23T02:22:36.408Z,78.56
2022-12-23T02:25:29.272Z,79.43
2022-12-23T02:27:58.650Z,78.90
2022-12-23T02:30:25.124Z,79.42
2022-12-23T02:33:10.161Z,78.94
2022-12-23T02:35:55.349Z,79.26
2022-12-23T02:38:26.469Z,78.73
2022-12-23T02:40:52.855Z,78.60
2022-12-23T02:43:26.172Z,78.83
2022-12-23T02:45:52.600Z,77.63
2022-12-23T02:48:27.324Z,77.32
2022-12-23T02:50:54.724Z,78.50
2022-12-23T02:53:25.060Z,77.81
2022-12-23T02:55:53.233Z,78.04
2022-12-23T02:58:22.146Z,77.56
2022-12-23T03:00:49.772Z,77.65
2022-12-23T03:03:17.110Z,76.84
2022-12-23T03:05:45.143Z,77.42
2022-12-23T03:08:24.199Z,77.72
2022-12-23T03:11:07.726Z,77.66
2022-12-23T03:13:42.649Z,76.91
2022-12-23T03:16:13.475Z,76.54
2022-12-23T03:18:42.923Z,77.14
2022-12-23T03:21:14.351Z,77.31
2022-12-23T03:23:43.690Z,76.37
2022-12-23T03:26:13.232Z,76.98
2022-12-23T03:28:39.656Z,77.13
2022-12-23T03:31:08.030Z,77.94
2022-12-23T03:33:37.209Z,77.16
2022-12-23T03:36:09.270Z,77.64
2022-12-23T03:38:38.895Z,78.19
2022-12-23T03:41:07.781Z,78.75
2022-12-23T03:43:37.056Z,78.75
2022-12-23T03:46:07.091Z,78.39
2022-12-23T03:48:39.961Z,78.55
2022-12-23T03:51:10.988Z,78.25
2022-12-23T03:54:03.833Z,78.46
2022-12-23T03:56:39.243Z,77.92
2022-12-23T03:59:17.663Z,77.65
2022-12-23T04:02:02.560Z,79.07
2022-12-23T04:04:40.255Z,79.27
2022-12-23T04:07:13.316Z,78.25
2022-12-23T04:09:40.590Z,77.87
2022-12-23T04:12:07.342Z,77.51
2022-12-23T04:14:35.214Z,77.21
2022-12-23T04:17:01.809Z,77.89
2022-12-23T04:19:28.249Z,77.87
2022-12-23T04:21:56.216Z,77.17
2022-12-23T04:24:22.775Z,78.03
2022-12-23T04:26:49.226Z,77.39
2022-12-23T04:29:15.663Z,77.95
2022-12-23T04:31:42.151Z,77.77
2022-12-23T04:34:08.634Z,77.24
2022-12-23T04:36:35.470Z,76.50
2022-12-23T04:39:01.872Z,77.61
2022-12-23T04:41:28.496Z,76.89
2022-12-23T04:43:54.934Z,77.97
2022-12-23T04:46:21.402Z,78.20
2022-12-23T04:48:47.945Z,77.21
2022-12-23T04:51:14.383Z,77.23
2022-12-23T04:53:40.891Z,76.61
2022-12-23T04:56:07.303Z,77.13
2022-12-23T04:58:33.801Z,77.14
2022-12-23T05:01:01.502Z,76.66
2022-12-23T05:03:28.092Z,77.09
2022-12-23T05:05:54.627Z,77.42
2022-12-23T05:08:21.047Z,77.90
2022-12-23T05:10:47.610Z,77.13
2022-12-23T05:13:14.060Z,76.98
2022-12-23T05:15:40.560Z,76.41
2022-12-23T05:18:06.987Z,76.90
2022-12-23T05:20:33.425Z,76.93
2022-12-23T05:22:59.848Z,76.69
2022-12-23T05:25:26.266Z,76.68
2022-12-23T05:27:52.720Z,77.07
2022-12-23T05:30:19.215Z,76.24
2022-12-23T05:32:45.811Z,76.78
2022-12-23T05:35:12.229Z,76.25
2022-12-23T05:37:38.736Z,77.43
2022-12-23T05:40:05.492Z,77.22
2022-12-23T05:42:32.251Z,76.84
2022-12-23T05:44:58.653Z,77.09
2022-12-23T05:47:25.084Z,76.04
2022-12-23T05:49:51.595Z,76.37
2022-12-23T05:52:18.090Z,76.81
2022-12-23T05:54:44.463Z,76.47
2022-12-23T05:57:10.941Z,76.45
2022-12-23T05:59:37.423Z,77.72
2022-12-23T06:02:04.163Z,78.18
2022-12-23T06:04:30.778Z,78.15
2022-12-23T06:06:57.456Z,78.26
2022-12-23T06:09:23.948Z,78.44
2022-12-23T06:11:50.391Z,78.24
2022-12-23T06:14:16.815Z,77.93
2022-12-23T06:16:43.376Z,78.58
2022-12-23T06:19:09.829Z,78.36
2022-12-23T06:21:39.387Z,78.50
2022-12-23T06:24:06.027Z,77.48
2022-12-23T06:26:33.832Z,76.21
2022-12-23T06:29:00.217Z,76.91
2022-12-23T06:31:26.721Z,78.08
2022-12-23T06:33:53.441Z,78.30
2022-12-23T06:36:19.833Z,79.27
2022-12-23T06:38:46.253Z,79.61
2022-12-23T06:41:12.667Z,79.61
2022-12-23T06:43:39.182Z,79.50
2022-12-23T06:46:05.712Z,78.94
2022-12-23T06:48:32.241Z,79.61
2022-12-23T06:50:58.689Z,79.91
2022-12-23T06:53:25.302Z,80.06
2022-12-23T06:55:59.055Z,80.93
2022-12-23T06:58:25.430Z,80.26
2022-12-23T07:00:51.885Z,80.78
2022-12-23T07:03:18.430Z,80.16
2022-12-23T07:05:48.429Z,80.20
2022-12-23T07:08:14.902Z,80.20
2022-12-23T07:10:41.406Z,80.80
2022-12-23T07:13:07.787Z,81.05
2022-12-23T07:15:34.180Z,80.49
2022-12-23T07:18:00.592Z,80.35
2022-12-23T07:20:27.131Z,80.78
2022-12-23T07:22:54.403Z,81.33
2022-12-23T07:25:21.136Z,81.01
2022-12-23T07:27:47.549Z,80.92
2022-12-23T07:30:14.064Z,81.19
2022-12-23T07:32:40.418Z,81.09
2022-12-23T07:35:07.112Z,80.12
2022-12-23T07:37:33.509Z,80.19
2022-12-23T07:40:04.995Z,80.60
2022-12-23T07:42:44.886Z,80.71
2022-12-23T07:45:12.363Z,80.79
2022-12-23T07:47:38.775Z,79.76
2022-12-23T07:50:05.599Z,78.74
2022-12-23T07:52:31.992Z,78.86
2022-12-23T07:54:58.426Z,79.25
2022-12-23T07:57:25.144Z,79.67
2022-12-23T07:59:51.567Z,78.70
2022-12-23T08:02:18.163Z,77.62
2022-12-23T08:04:46.451Z,77.60
2022-12-23T08:07:13.468Z,77.34
2022-12-23T08:09:39.893Z,78.84
2022-12-23T08:12:06.527Z,77.97
2022-12-23T08:14:32.959Z,77.64
2022-12-23T08:16:59.505Z,78.25
2022-12-23T08:19:25.983Z,79.71
2022-12-23T08:21:52.463Z,79.92
2022-12-23T08:24:18.884Z,80.26
2022-12-23T08:26:45.330Z,80.52
2022-12-23T08:29:11.850Z,80.04
2022-12-23T08:31:38.571Z,81.03
2022-12-23T08:34:04.980Z,81.06
2022-12-23T08:36:32.491Z,80.93
2022-12-23T08:39:00.153Z,80.73
2022-12-23T08:41:28.544Z,80.23
2022-12-23T08:43:55.464Z,80.14
2022-12-23T08:46:23.695Z,79.72
2022-12-23T08:48:50.908Z,79.85
2022-12-23T08:51:18.644Z,78.93
2022-12-23T08:53:45.201Z,78.92
2022-12-23T08:56:13.466Z,77.78
2022-12-23T08:58:40.913Z,78.19
2022-12-23T09:01:08.619Z,78.08
2022-12-23T09:03:35.649Z,78.03
2022-12-23T09:06:05.873Z,77.70
2022-12-23T09:08:32.482Z,77.67
2022-12-23T09:10:58.891Z,77.15
2022-12-23T09:13:32.978Z,76.70
2022-12-23T09:16:02.187Z,77.15
2022-12-23T09:18:28.655Z,77.11
2022-12-23T09:20:58.825Z,76.95
2022-12-23T09:23:25.240Z,76.13
2022-12-23T09:25:51.771Z,76.60
2022-12-23T09:28:18.173Z,76.70
2022-12-23T09:30:44.648Z,76.80
2022-12-23T09:33:11.159Z,76.49
2022-12-23T09:35:37.646Z,76.91
2022-12-23T09:38:07.573Z,77.15
2022-12-23T09:40:36.972Z,76.78
2022-12-23T09:43:22.084Z,76.92
2022-12-23T09:46:08.412Z,77.50
2022-12-23T09:48:40.886Z,78.32
2022-12-23T09:51:09.495Z,77.64
2022-12-23T09:53:56.125Z,77.67
2022-12-23T09:56:27.727Z,77.41
2022-12-23T09:59:14.641Z,78.11
2022-12-23T10:01:46.859Z,77.28
2022-12-23T10:04:22.970Z,77.00
2022-12-23T10:07:03.155Z,76.50
2022-12-23T10:09:32.659Z,76.61
2022-12-23T10:11:59.770Z,76.88
2022-12-23T10:14:31.860Z,77.49
2022-12-23T10:17:17.284Z,77.34
2022-12-23T10:22:41.779Z,76.46
2022-12-23T10:25:17.335Z,76.69
2022-12-23T10:27:44.307Z,76.94
2022-12-23T10:30:34.351Z,77.10
2022-12-23T10:33:02.303Z,77.13
2022-12-23T10:35:45.682Z,77.39
2022-12-23T10:38:29.056Z,77.07
2022-12-23T10:41:14.150Z,78.35
2022-12-23T10:44:05.478Z,78.82
2022-12-23T10:46:34.750Z,78.68
2022-12-23T10:49:07.454Z,77.62
2022-12-23T10:51:48.937Z,78.58
2022-12-23T10:54:24.715Z,77.96
2022-12-23T10:56:51.456Z,78.10
2022-12-23T10:59:29.353Z,77.80
2022-12-23T11:02:08.256Z,77.81
2022-12-23T11:04:35.743Z,77.86
2022-12-23T11:07:42.032Z,77.23
2022-12-23T11:10:05.192Z,76.72
2022-12-23T11:12:57.869Z,77.09
2022-12-23T11:15:35.605Z,76.25
2022-12-23T11:18:03.231Z,76.58
2022-12-23T11:20:30.122Z,77.15
2022-12-23T11:22:59.760Z,77.11
2022-12-23T11:25:40.665Z,76.14
2022-12-23T11:28:10.792Z,77.01
2022-12-23T11:30:56.907Z,76.62
2022-12-23T11:33:31.628Z,76.74
2022-12-23T11:36:03.471Z,76.99
2022-12-23T11:38:30.148Z,76.50
2022-12-23T11:40:56.902Z,76.96
2022-12-23T11:43:25.268Z,76.63
2022-12-23T11:46:11.795Z,76.59
2022-12-23T11:48:38.717Z,77.02
2022-12-23T11:51:05.244Z,77.02
2022-12-23T11:53:32.292Z,77.01
2022-12-23T11:56:10.062Z,76.45
2022-12-23T11:58:51.159Z,77.75
2022-12-23T12:01:23.103Z,77.28
2022-12-23T12:03:53.547Z,76.48
2022-12-23T12:06:20.445Z,76.57
2022-12-23T12:08:49.434Z,75.89
2022-12-23T12:11:23.229Z,76.67
2022-12-23T12:13:52.698Z,76.56
2022-12-23T12:16:31.537Z,76.61
2022-12-23T12:19:01.996Z,76.59
2022-12-23T12:21:30.340Z,76.40
2022-12-23T12:24:17.140Z,76.29
2022-12-23T12:26:47.067Z,75.85
2022-12-23T12:29:32.728Z,75.72
2022-12-23T12:32:00.155Z,76.04
2022-12-23T12:34:26.560Z,76.44
2022-12-23T12:37:00.687Z,76.15
2022-12-23T12:39:30.214Z,76.76
2022-12-23T12:42:17.012Z,76.58
2022-12-23T12:44:50.926Z,76.57
2022-12-23T12:47:52.268Z,76.28
2022-12-23T12:50:16.777Z,77.57
2022-12-23T12:52:43.709Z,77.33
2022-12-23T12:55:28.517Z,77.37
2022-12-23T12:57:54.934Z,77.18
2022-12-23T13:00:23.248Z,77.97
2022-12-23T13:03:08.223Z,77.95
2022-12-23T13:05:54.426Z,77.62
2022-12-23T13:08:39.951Z,77.60
2022-12-23T13:11:16.293Z,78.28
2022-12-23T13:13:42.640Z,77.43
2022-12-23T13:16:12.201Z,77.24
2022-12-23T13:18:45.431Z,77.21
2022-12-23T13:21:16.648Z,77.44
2022-12-23T13:24:02.011Z,77.26
2022-12-23T13:26:37.077Z,77.30
2022-12-23T13:29:16.024Z,77.22
2022-12-23T13:31:49.579Z,78.01
2022-12-23T13:34:34.701Z,77.69
2022-12-23T13:37:16.897Z,78.39
2022-12-23T13:39:53.839Z,78.14
2022-12-23T13:42:27.724Z,78.35
2022-12-23T13:44:55.276Z,78.25
2022-12-23T13:47:33.884Z,78.19
2022-12-23T13:50:12.168Z,77.93
2022-12-23T13:52:49.909Z,77.74
2022-12-23T13:55:24.711Z,77.49
2022-12-23T13:57:54.122Z,77.54
2022-12-23T14:00:24.504Z,77.21
2022-12-23T14:02:52.284Z,76.99
2022-12-23T14:05:31.152Z,77.12
2022-12-23T14:08:02.469Z,77.54
2022-12-23T14:10:30.041Z,77.22
2022-12-23T14:13:01.624Z,77.20
2022-12-23T14:15:31.573Z,77.26
2022-12-23T14:18:04.355Z,77.19
2022-12-23T14:20:31.351Z,76.76
2022-12-23T14:23:00.759Z,77.36
2022-12-23T14:25:43.369Z,78.10
2022-12-23T14:28:16.151Z,77.27
2022-12-23T14:30:46.634Z,77.36
2022-12-23T14:33:22.614Z,77.18
2022-12-23T14:35:50.777Z,77.93
2022-12-23T14:38:26.495Z,77.52
2022-12-23T14:40:54.702Z,77.93
2022-12-23T14:43:40.096Z,78.64
2022-12-23T14:46:22.853Z,78.78
2022-12-23T14:48:49.953Z,78.21
2022-12-23T14:51:42.708Z,78.55
2022-12-23T14:54:09.074Z,79.03
2022-12-23T14:56:38.517Z,78.82
2022-12-23T14:59:17.276Z,77.98
2022-12-23T15:01:48.757Z,77.94
2022-12-23T15:04:26.047Z,78.35
2022-12-23T15:06:55.493Z,78.31
2022-12-23T15:09:26.986Z,78.30
2022-12-23T15:11:54.938Z,78.44
2022-12-23T15:14:30.314Z,78.39
2022-12-23T15:16:56.742Z,78.78
2022-12-23T15:19:25.522Z,78.48
2022-12-23T15:22:13.534Z,78.18
2022-12-23T15:24:46.220Z,78.64
2022-12-23T15:27:27.394Z,79.32
2022-12-23T15:29:55.056Z,78.66
2022-12-23T15:32:23.446Z,79.42
2022-12-23T15:34:50.946Z,79.44
2022-12-23T15:37:19.119Z,79.03
2022-12-23T15:39:50.085Z,78.96
2022-12-23T15:42:38.490Z,78.81
2022-12-23T15:45:28.579Z,78.75
2022-12-23T15:47:55.051Z,78.32
2022-12-23T15:50:21.454Z,78.13
2022-12-23T15:52:49.056Z,78.08
2022-12-23T15:55:20.579Z,77.54
2022-12-23T15:57:50.437Z,76.96
2022-12-23T16:00:28.890Z,77.45
2022-12-23T16:03:01.535Z,77.76
2022-12-23T16:05:33.698Z,77.10
2022-12-23T16:08:11.654Z,77.92
2022-12-23T16:10:38.491Z,78.95
2022-12-23T16:13:04.912Z,78.99
2022-12-23T16:15:32.965Z,78.93
2022-12-23T16:18:18.308Z,78.58
2022-12-23T16:20:46.969Z,78.10
2022-12-23T16:23:13.615Z,78.76
2022-12-23T16:25:43.034Z,77.60
2022-12-23T16:28:17.990Z,77.90
2022-12-23T16:30:46.725Z,77.79
2022-12-23T16:33:33.361Z,77.75
2022-12-23T16:36:15.007Z,78.35
2022-12-23T16:38:41.480Z,77.67
2022-12-23T16:41:08.359Z,77.54
2022-12-23T16:43:34.812Z,77.26
2022-12-23T16:46:01.730Z,77.02
2022-12-23T16:48:33.218Z,76.34
2022-12-23T16:51:00.002Z,76.77
2022-12-23T16:53:26.717Z,76.52
2022-12-23T16:55:59.993Z,76.85
2022-12-23T16:58:27.140Z,76.29
2022-12-23T17:00:54.053Z,75.45
2022-12-23T17:03:20.627Z,75.87
2022-12-23T17:05:47.751Z,75.63
2022-12-23T17:08:14.437Z,75.63
2022-12-23T17:10:41.495Z,74.81
2022-12-23T17:13:10.150Z,75.44
2022-12-23T17:15:36.604Z,74.83
2022-12-23T17:18:03.352Z,74.97
2022-12-23T17:20:30.444Z,75.40
2022-12-23T17:22:59.128Z,75.10
2022-12-23T17:25:26.714Z,76.10
2022-12-23T17:27:53.618Z,75.29
2022-12-23T17:30:21.455Z,75.80
2022-12-23T17:32:52.564Z,75.39
2022-12-23T17:35:20.781Z,75.73
2022-12-23T17:37:47.209Z,75.48
2022-12-23T17:40:14.232Z,75.47
2022-12-23T17:42:41.109Z,76.01
2022-12-23T17:45:23.445Z,75.67
2022-12-23T17:47:49.936Z,75.30
2022-12-23T17:50:16.525Z,75.75
2022-12-23T17:52:42.923Z,75.57
2022-12-23T17:55:20.629Z,75.40
2022-12-23T17:57:47.313Z,74.81
2022-12-23T18:00:18.644Z,75.11
2022-12-23T18:02:51.822Z,75.39
2022-12-23T18:05:26.427Z,74.99
2022-12-23T18:07:53.644Z,75.32
2022-12-23T18:10:22.401Z,75.68
2022-12-23T18:12:54.516Z,75.21
2022-12-23T18:15:24.976Z,75.37
2022-12-23T18:17:51.897Z,75.14
2022-12-23T18:20:20.335Z,75.34
2022-12-23T18:22:48.028Z,74.99
2022-12-23T18:25:15.938Z,74.62
2022-12-23T18:27:42.348Z,74.86
2022-12-23T18:30:09.484Z,75.58
2022-12-23T18:32:35.975Z,76.33
2022-12-23T18:35:02.417Z,76.41
2022-12-23T18:37:28.871Z,77.36
2022-12-23T18:39:55.330Z,77.22
2022-12-23T18:42:21.778Z,78.42
2022-12-23T18:44:48.488Z,78.97
2022-12-23T18:47:14.969Z,77.00
2022-12-23T18:49:41.858Z,76.52
2022-12-23T18:52:12.491Z,76.35
2022-12-23T18:54:39.461Z,75.99
2022-12-23T18:57:06.242Z,76.19
2022-12-23T18:59:34.160Z,76.70
2022-12-23T19:02:00.806Z,76.97
2022-12-23T19:04:27.494Z,77.17
2022-12-23T19:06:54.639Z,77.71
2022-12-23T19:09:21.965Z,76.90
2022-12-23T19:11:49.175Z,76.81
2022-12-23T19:14:15.623Z,76.49
2022-12-23T19:16:47.554Z,76.44
2022-12-23T19:19:17.539Z,75.93
2022-12-23T19:21:43.977Z,76.51
2022-12-23T19:24:10.456Z,77.86
2022-12-23T19:26:36.959Z,77.65
2022-12-23T19:29:03.335Z,77.39
2022-12-23T19:31:29.960Z,76.81
2022-12-23T19:33:56.667Z,77.30
2022-12-23T19:36:23.462Z,78.25
2022-12-23T19:38:50.030Z,77.72
2022-12-23T19:41:16.671Z,77.55
2022-12-23T19:43:44.036Z,77.26
2022-12-23T19:46:11.502Z,76.75
2022-12-23T19:48:38.255Z,76.66
2022-12-23T19:51:06.103Z,77.29
2022-12-23T19:53:33.016Z,77.83
2022-12-23T19:56:00.754Z,76.80
2022-12-23T19:58:27.379Z,76.98
2022-12-23T20:01:04.003Z,77.12
2022-12-23T20:03:30.534Z,77.64
2022-12-23T20:05:56.996Z,77.94
2022-12-23T20:08:23.653Z,77.96
2022-12-23T20:10:50.298Z,77.54
2022-12-23T20:13:16.713Z,78.44
2022-12-23T20:15:43.152Z,78.09
2022-12-23T20:18:10.046Z,77.70
2022-12-23T20:20:37.656Z,77.68
2022-12-23T20:23:04.114Z,76.79
2022-12-23T20:25:30.520Z,76.93
2022-12-23T20:27:56.929Z,75.98
2022-12-23T20:30:23.475Z,76.08
2022-12-23T20:32:49.978Z,75.28
2022-12-23T20:35:16.375Z,74.96
2022-12-23T20:37:42.804Z,74.83
2022-12-23T20:40:11.091Z,75.49
2022-12-23T20:42:37.541Z,75.81
2022-12-23T20:45:04.349Z,75.52
2022-12-23T20:47:30.749Z,75.39
2022-12-23T20:49:57.519Z,75.57
2022-12-23T20:52:25.813Z,75.00
2022-12-23T20:54:52.211Z,74.61
2022-12-23T20:57:19.221Z,74.65
2022-12-23T20:59:45.846Z,74.94
2022-12-23T21:02:13.218Z,75.87
2022-12-23T21:04:39.711Z,75.24
2022-12-23T21:07:06.190Z,75.33
2022-12-23T21:09:32.883Z,74.88
2022-12-23T21:11:59.422Z,75.36
2022-12-23T21:14:25.878Z,75.03
2022-12-23T21:16:52.798Z,75.38
2022-12-23T21:19:20.648Z,74.91
2022-12-23T21:21:47.594Z,74.95
2022-12-23T21:24:14.046Z,74.55
2022-12-23T21:26:40.923Z,74.33
2022-12-23T21:29:08.318Z,74.68
2022-12-23T21:31:35.984Z,74.83
2022-12-23T21:34:02.543Z,75.31
2022-12-23T21:36:33.197Z,75.49
2022-12-23T21:38:59.654Z,75.02
2022-12-23T21:41:30.202Z,74.70
2022-12-23T21:43:57.608Z,74.34
2022-12-23T21:46:24.595Z,74.51
2022-12-23T21:48:51.513Z,73.88
2022-12-23T21:51:18.006Z,74.22
2022-12-23T21:53:45.317Z,73.90
2022-12-23T21:56:14.245Z,74.38
2022-12-23T21:58:40.816Z,73.59
2022-12-23T22:01:11.838Z,73.24
2022-12-23T22:03:38.765Z,73.04
2022-12-23T22:06:10.757Z,72.93
2022-12-23T22:08:37.805Z,72.65
2022-12-23T22:11:15.189Z,72.99
2022-12-23T22:13:41.905Z,72.61
2022-12-23T22:16:12.394Z,72.21
2022-12-23T22:18:39.301Z,72.76
2022-12-23T22:21:06.956Z,73.21
2022-12-23T22:23:33.588Z,73.35
2022-12-23T22:26:00.224Z,73.38
2022-12-23T22:28:26.945Z,73.07
2022-12-23T22:30:53.552Z,72.80
2022-12-23T22:33:21.138Z,72.67
2022-12-23T22:35:55.629Z,73.51
2022-12-23T22:38:22.100Z,72.72
2022-12-23T22:40:51.968Z,73.15
2022-12-23T22:43:18.711Z,73.04
2022-12-23T22:45:45.628Z,72.29
2022-12-23T22:48:12.188Z,72.46
2022-12-23T22:50:39.009Z,73.03
2022-12-23T22:53:05.608Z,72.85
2022-12-23T22:55:32.021Z,73.39
2022-12-23T22:57:58.433Z,73.71
2022-12-23T23:00:24.891Z,73.92
2022-12-23T23:02:51.330Z,72.78
2022-12-23T23:05:17.843Z,73.27
2022-12-23T23:07:44.332Z,73.71
2022-12-23T23:10:12.025Z,73.08
2022-12-23T23:12:38.534Z,73.81
2022-12-23T23:15:05.190Z,73.29
2022-12-23T23:17:31.684Z,74.13
2022-12-23T23:19:58.717Z,73.83
2022-12-23T23:22:25.457Z,73.43
2022-12-23T23:24:52.246Z,73.37
2022-12-23T23:27:18.774Z,72.03
2022-12-23T23:29:45.223Z,72.36
2022-12-23T23:32:11.737Z,72.51
2022-12-23T23:34:38.289Z,72.05
2022-12-23T23:37:05.141Z,71.08
2022-12-23T23:39:31.690Z,71.86
2022-12-23T23:41:58.153Z,71.37
2022-12-23T23:44:24.901Z,71.91
2022-12-23T23:46:51.484Z,71.27
2022-12-23T23:49:17.919Z,72.53
2022-12-23T23:51:44.678Z,71.60
2022-12-23T23:54:11.294Z,71.80
2022-12-23T23:56:39.393Z,71.10
2022-12-23T23:59:06.639Z,71.37
